sensor_id;sensor_type;location;lat;lon;timestamp;pressure;altitude;pressure_sealevel;temperature;humidity
22830;BME280;11581;51.250;6.778;2023-03-05T00:02:10;101748.22;;;8.84;53.72
22830;BME280;11581;51.250;6.778;2023-03-05T00:04:37;101746.53;;;8.83;53.34
22830;BME280;11581;51.250;6.778;2023-03-05T00:07:04;101759.09;;;8.81;53.40
22830;BME280;11581;51.250;6.778;2023-03-05T00:09:33;101706.94;;;8.55;53.65
22830;BME280;11581;51.250;6.778;2023-03-05T00:12:00;101738.06;;;8.78;53.61
22830;BME280;11581;51.250;6.778;2023-03-05T00:14:27;101661.84;;;8.17;53.53
22830;BME280;11581;51.250;6.778;2023-03-05T00:16:56;101739.97;;;8.76;53.64
22830;BME280;11581;51.250;6.778;2023-03-05T00:19:25;101744.44;;;8.75;53.59
22830;BME280;11581;51.250;6.778;2023-03-05T00:21:51;101735.75;;;8.73;53.49
22830;BME280;11581;51.250;6.778;2023-03-05T00:24:18;101738.50;;;8.72;53.54
22830;BME280;11581;51.250;6.778;2023-03-05T00:26:45;101735.84;;;8.72;53.57
22830;BME280;11581;51.250;6.778;2023-03-05T00:29:14;101737.66;;;8.71;53.96
22830;BME280;11581;51.250;6.778;2023-03-05T00:31:44;101724.06;;;8.63;53.72
22830;BME280;11581;51.250;6.778;2023-03-05T00:34:13;101730.75;;;8.69;53.89
22830;BME280;11581;51.250;6.778;2023-03-05T00:36:44;101733.41;;;8.69;54.25
22830;BME280;11581;51.250;6.778;2023-03-05T00:39:12;101735.31;;;8.67;54.02
22830;BME280;11581;51.250;6.778;2023-03-05T00:41:39;101733.63;;;8.66;54.03
22830;BME280;11581;51.250;6.778;2023-03-05T00:44:06;101711.13;;;8.59;53.93
22830;BME280;11581;51.250;6.778;2023-03-05T00:46:33;101694.34;;;8.46;53.88
22830;BME280;11581;51.250;6.778;2023-03-05T00:49:00;101703.47;;;8.54;53.81
22830;BME280;11581;51.250;6.778;2023-03-05T00:51:27;101700.91;;;8.53;54.04
22830;BME280;11581;51.250;6.778;2023-03-05T00:53:56;101674.94;;;8.33;54.54
22830;BME280;11581;51.250;6.778;2023-03-05T00:56:25;101712.81;;;8.60;54.17
22830;BME280;11581;51.250;6.778;2023-03-05T00:58:53;101714.50;;;8.61;54.13
22830;BME280;11581;51.250;6.778;2023-03-05T01:01:20;101706.63;;;8.59;54.23
22830;BME280;11581;51.250;6.778;2023-03-05T01:03:47;101708.44;;;8.59;54.31
22830;BME280;11581;51.250;6.778;2023-03-05T01:06:15;101711.94;;;8.59;54.08
22830;BME280;11581;51.250;6.778;2023-03-05T01:08:44;101716.44;;;8.59;54.20
22830;BME280;11581;51.250;6.778;2023-03-05T01:11:13;101704.06;;;8.58;54.49
22830;BME280;11581;51.250;6.778;2023-03-05T01:13:40;101710.38;;;8.57;54.29
22830;BME280;11581;51.250;6.778;2023-03-05T01:16:08;101708.69;;;8.56;54.26
22830;BME280;11581;51.250;6.778;2023-03-05T01:18:36;101700.69;;;8.56;54.73
22830;BME280;11581;51.250;6.778;2023-03-05T01:21:03;101698.25;;;8.53;54.36
22830;BME280;11581;51.250;6.778;2023-03-05T01:23:30;101698.25;;;8.53;54.38
22830;BME280;11581;51.250;6.778;2023-03-05T01:25:58;101693.06;;;8.51;54.43
22830;BME280;11581;51.250;6.778;2023-03-05T01:28:29;101676.69;;;8.45;55.14
22830;BME280;11581;51.250;6.778;2023-03-05T01:30:56;101677.53;;;8.45;54.71
22830;BME280;11581;51.250;6.778;2023-03-05T01:33:23;101687.63;;;8.53;54.62
22830;BME280;11581;51.250;6.778;2023-03-05T01:35:51;101622.31;;;8.13;54.65
22830;BME280;11581;51.250;6.778;2023-03-05T01:38:19;101678.19;;;8.49;54.60
22830;BME280;11581;51.250;6.778;2023-03-05T01:40:46;101680.09;;;8.47;54.62
22830;BME280;11581;51.250;6.778;2023-03-05T01:43:24;101678.41;;;8.46;55.66
22830;BME280;11581;51.250;6.778;2023-03-05T01:49:09;101665.34;;;8.43;55.10
22830;BME280;11581;51.250;6.778;2023-03-05T01:51:41;101662.91;;;8.40;55.05
22830;BME280;11581;51.250;6.778;2023-03-05T01:54:11;101654.16;;;8.38;55.18
22830;BME280;11581;51.250;6.778;2023-03-05T01:56:42;101659.72;;;8.35;55.20
22830;BME280;11581;51.250;6.778;2023-03-05T01:59:10;101606.81;;;8.07;55.02
22830;BME280;11581;51.250;6.778;2023-03-05T02:01:40;101477.66;;;7.21;55.42
22830;BME280;11581;51.250;6.778;2023-03-05T02:04:12;101656.34;;;8.33;55.39
22830;BME280;11581;51.250;6.778;2023-03-05T02:06:41;101654.50;;;8.33;55.23
22830;BME280;11581;51.250;6.778;2023-03-05T02:09:10;101635.63;;;8.25;55.52
22830;BME280;11581;51.250;6.778;2023-03-05T02:11:37;101651.03;;;8.33;55.43
22830;BME280;11581;51.250;6.778;2023-03-05T02:14:05;101630.41;;;8.24;55.39
22830;BME280;11581;51.250;6.778;2023-03-05T02:16:33;101636.13;;;8.30;55.58
22830;BME280;11581;51.250;6.778;2023-03-05T02:19:02;101634.31;;;8.31;55.37
22830;BME280;11581;51.250;6.778;2023-03-05T02:21:37;101623.38;;;8.23;56.06
22830;BME280;11581;51.250;6.778;2023-03-05T02:24:05;101631.88;;;8.28;55.78
22830;BME280;11581;51.250;6.778;2023-03-05T02:26:31;101623.91;;;8.28;55.45
22830;BME280;11581;51.250;6.778;2023-03-05T02:29:00;101626.56;;;8.28;56.00
22830;BME280;11581;51.250;6.778;2023-03-05T02:31:28;101623.78;;;8.29;55.60
22830;BME280;11581;51.250;6.778;2023-03-05T02:33:55;101614.97;;;8.29;55.31
22830;BME280;11581;51.250;6.778;2023-03-05T02:36:24;101615.94;;;8.28;55.42
22830;BME280;11581;51.250;6.778;2023-03-05T02:38:53;101610.63;;;8.28;55.18
22830;BME280;11581;51.250;6.778;2023-03-05T02:41:22;101614.25;;;8.27;55.34
22830;BME280;11581;51.250;6.778;2023-03-05T02:43:50;101609.75;;;8.27;55.21
22830;BME280;11581;51.250;6.778;2023-03-05T02:46:18;101600.63;;;8.19;55.28
22830;BME280;11581;51.250;6.778;2023-03-05T02:48:45;101611.69;;;8.25;55.33
22830;BME280;11581;51.250;6.778;2023-03-05T02:51:12;101619.03;;;8.22;55.65
22830;BME280;11581;51.250;6.778;2023-03-05T02:53:41;101606.69;;;8.21;55.65
22830;BME280;11581;51.250;6.778;2023-03-05T02:56:10;101598.94;;;8.18;55.84
22830;BME280;11581;51.250;6.778;2023-03-05T02:58:37;101598.94;;;8.18;55.83
22830;BME280;11581;51.250;6.778;2023-03-05T03:01:04;101593.63;;;8.18;56.14
22830;BME280;11581;51.250;6.778;2023-03-05T03:03:31;101586.63;;;8.17;56.10
22830;BME280;11581;51.250;6.778;2023-03-05T03:05:57;101586.84;;;8.14;56.22
22830;BME280;11581;51.250;6.778;2023-03-05T03:08:24;101594.69;;;8.15;56.28
22830;BME280;11581;51.250;6.778;2023-03-05T03:10:51;101582.34;;;8.14;56.45
22830;BME280;11581;51.250;6.778;2023-03-05T03:13:22;101585.88;;;8.15;56.48
22830;BME280;11581;51.250;6.778;2023-03-05T03:15:49;101579.81;;;8.13;56.45
22830;BME280;11581;51.250;6.778;2023-03-05T03:18:16;101572.81;;;8.12;56.29
22830;BME280;11581;51.250;6.778;2023-03-05T03:20:43;101578.34;;;8.09;56.31
22830;BME280;11581;51.250;6.778;2023-03-05T03:23:09;101544.81;;;7.95;56.42
22830;BME280;11581;51.250;6.778;2023-03-05T03:25:36;101566.25;;;8.05;56.10
22830;BME280;11581;51.250;6.778;2023-03-05T03:28:03;101547.56;;;7.94;56.07
22830;BME280;11581;51.250;6.778;2023-03-05T03:30:31;101567.34;;;8.02;56.63
22830;BME280;11581;51.250;6.778;2023-03-05T03:32:58;101561.16;;;8.02;56.54
22830;BME280;11581;51.250;6.778;2023-03-05T03:35:25;101555.84;;;8.02;56.45
22830;BME280;11581;51.250;6.778;2023-03-05T03:37:51;101557.53;;;8.03;56.13
22830;BME280;11581;51.250;6.778;2023-03-05T03:40:18;101552.22;;;8.03;56.58
22830;BME280;11581;51.250;6.778;2023-03-05T03:42:45;101555.84;;;8.02;56.36
22830;BME280;11581;51.250;6.778;2023-03-05T03:45:12;101539.91;;;8.02;56.26
22830;BME280;11581;51.250;6.778;2023-03-05T03:47:40;101548.84;;;8.01;56.56
22830;BME280;11581;51.250;6.778;2023-03-05T03:50:08;101533.56;;;7.92;56.02
22830;BME280;11581;51.250;6.778;2023-03-05T03:52:35;101524.84;;;7.90;56.16
22830;BME280;11581;51.250;6.778;2023-03-05T03:55:02;101563.28;;;7.97;56.32
22830;BME280;11581;51.250;6.778;2023-03-05T03:57:29;101465.22;;;7.47;56.28
22830;BME280;11581;51.250;6.778;2023-03-05T03:59:58;101536.94;;;7.94;56.51
22830;BME280;11581;51.250;6.778;2023-03-05T04:02:25;101530.91;;;7.92;56.38
22830;BME280;11581;51.250;6.778;2023-03-05T04:04:57;101531.88;;;7.91;56.71
22830;BME280;11581;51.250;6.778;2023-03-05T04:07:25;101505.56;;;7.75;56.63
22830;BME280;11581;51.250;6.778;2023-03-05T04:09:52;101528.47;;;7.89;56.77
22830;BME280;11581;51.250;6.778;2023-03-05T04:12:18;101511.53;;;7.79;56.61
22830;BME280;11581;51.250;6.778;2023-03-05T04:14:46;101514.44;;;7.87;56.88
22830;BME280;11581;51.250;6.778;2023-03-05T04:17:14;101435.22;;;7.34;56.48
22830;BME280;11581;51.250;6.778;2023-03-05T04:19:41;101522.53;;;7.85;56.65
22830;BME280;11581;51.250;6.778;2023-03-05T04:22:11;101519.97;;;7.84;57.35
22830;BME280;11581;51.250;6.778;2023-03-05T04:24:38;101516.50;;;7.83;56.60
22830;BME280;11581;51.250;6.778;2023-03-05T04:27:05;101521.94;;;7.82;56.96
22830;BME280;11581;51.250;6.778;2023-03-05T04:29:33;101482.44;;;7.65;56.82
22830;BME280;11581;51.250;6.778;2023-03-05T04:32:00;101475.66;;;7.61;57.09
22830;BME280;11581;51.250;6.778;2023-03-05T04:34:27;101438.13;;;7.42;57.02
22830;BME280;11581;51.250;6.778;2023-03-05T04:36:54;101371.31;;;7.01;57.21
22830;BME280;11581;51.250;6.778;2023-03-05T04:39:23;101495.91;;;7.74;57.43
22830;BME280;11581;51.250;6.778;2023-03-05T04:41:49;101342.38;;;6.85;57.18
22830;BME280;11581;51.250;6.778;2023-03-05T04:44:16;101487.31;;;7.71;57.22
22830;BME280;11581;51.250;6.778;2023-03-05T04:46:43;101492.63;;;7.71;57.21
22830;BME280;11581;51.250;6.778;2023-03-05T04:49:10;101490.94;;;7.70;57.71
22830;BME280;11581;51.250;6.778;2023-03-05T04:51:38;101485.63;;;7.70;57.40
22830;BME280;11581;51.250;6.778;2023-03-05T04:54:05;101487.31;;;7.71;57.58
22830;BME280;11581;51.250;6.778;2023-03-05T04:56:33;101476.53;;;7.61;57.74
22830;BME280;11581;51.250;6.778;2023-03-05T04:59:00;101483.09;;;7.68;57.89
22830;BME280;11581;51.250;6.778;2023-03-05T05:01:26;101424.38;;;7.37;57.25
22830;BME280;11581;51.250;6.778;2023-03-05T05:03:53;101394.06;;;7.16;57.25
22830;BME280;11581;51.250;6.778;2023-03-05T05:06:20;101472.78;;;7.64;57.36
22830;BME280;11581;51.250;6.778;2023-03-05T05:08:48;101456.81;;;7.53;57.75
22830;BME280;11581;51.250;6.778;2023-03-05T05:11:14;101472.06;;;7.62;57.76
22830;BME280;11581;51.250;6.778;2023-03-05T05:13:43;101442.78;;;7.51;57.75
22830;BME280;11581;51.250;6.778;2023-03-05T05:16:10;101387.63;;;7.07;57.40
22830;BME280;11581;51.250;6.778;2023-03-05T05:18:37;101434.34;;;7.46;57.83
22830;BME280;11581;51.250;6.778;2023-03-05T05:21:06;101456.47;;;7.57;58.06
22830;BME280;11581;51.250;6.778;2023-03-05T05:23:33;101445.09;;;7.55;57.47
22830;BME280;11581;51.250;6.778;2023-03-05T05:26:01;101430.72;;;7.47;57.50
22830;BME280;11581;51.250;6.778;2023-03-05T05:28:29;101445.34;;;7.52;57.39
22830;BME280;11581;51.250;6.778;2023-03-05T05:30:57;101365.66;;;7.05;57.44
22830;BME280;11581;51.250;6.778;2023-03-05T05:33:24;101435.50;;;7.42;57.46
22830;BME280;11581;51.250;6.778;2023-03-05T05:35:54;101435.59;;;7.40;57.39
22830;BME280;11581;51.250;6.778;2023-03-05T05:38:22;101452.66;;;7.49;57.36
22830;BME280;11581;51.250;6.778;2023-03-05T05:40:48;101457.25;;;7.47;57.41
22830;BME280;11581;51.250;6.778;2023-03-05T05:43:15;101457.25;;;7.47;57.77
22830;BME280;11581;51.250;6.778;2023-03-05T05:45:42;101378.53;;;6.99;57.57
22830;BME280;11581;51.250;6.778;2023-03-05T05:48:10;101453.63;;;7.48;58.03
22830;BME280;11581;51.250;6.778;2023-03-05T05:50:37;101350.97;;;6.76;57.78
22830;BME280;11581;51.250;6.778;2023-03-05T05:53:05;101445.56;;;7.49;57.57
22830;BME280;11581;51.250;6.778;2023-03-05T05:55:32;101442.78;;;7.51;57.73
22830;BME280;11581;51.250;6.778;2023-03-05T05:57:58;101422.31;;;7.40;57.56
22830;BME280;11581;51.250;6.778;2023-03-05T06:00:25;101442.56;;;7.54;57.62
22830;BME280;11581;51.250;6.778;2023-03-05T06:02:53;101412.56;;;7.41;57.38
22830;BME280;11581;51.250;6.778;2023-03-05T06:05:22;101440.66;;;7.56;57.66
22830;BME280;11581;51.250;6.778;2023-03-05T06:07:49;101438.94;;;7.55;57.42
22830;BME280;11581;51.250;6.778;2023-03-05T06:10:16;101440.66;;;7.56;57.42
22830;BME280;11581;51.250;6.778;2023-03-05T06:12:42;101441.59;;;7.55;57.59
22830;BME280;11581;51.250;6.778;2023-03-05T06:15:09;101449.56;;;7.55;57.74
22830;BME280;11581;51.250;6.778;2023-03-05T06:17:36;101449.56;;;7.55;57.73
22830;BME280;11581;51.250;6.778;2023-03-05T06:20:04;101437.25;;;7.54;57.50
22830;BME280;11581;51.250;6.778;2023-03-05T06:22:35;101438.94;;;7.55;57.99
22830;BME280;11581;51.250;6.778;2023-03-05T06:25:02;101438.94;;;7.55;57.55
22830;BME280;11581;51.250;6.778;2023-03-05T06:27:30;101418.75;;;7.41;57.62
22830;BME280;11581;51.250;6.778;2023-03-05T06:29:56;101409.06;;;7.40;57.45
22830;BME280;11581;51.250;6.778;2023-03-05T06:32:23;101438.94;;;7.55;57.48
22830;BME280;11581;51.250;6.778;2023-03-05T06:34:51;101437.25;;;7.54;57.49
22830;BME280;11581;51.250;6.778;2023-03-05T06:37:17;101414.25;;;7.42;57.64
22830;BME280;11581;51.250;6.778;2023-03-05T06:39:46;101439.91;;;7.54;57.66
22830;BME280;11581;51.250;6.778;2023-03-05T06:42:12;101431.09;;;7.53;57.48
22830;BME280;11581;51.250;6.778;2023-03-05T06:44:42;101433.63;;;7.55;57.78
22830;BME280;11581;51.250;6.778;2023-03-05T06:47:09;101432.16;;;7.51;57.67
22830;BME280;11581;51.250;6.778;2023-03-05T06:49:36;101419.13;;;7.48;57.43
22830;BME280;11581;51.250;6.778;2023-03-05T06:52:03;101434.16;;;7.60;57.75
22830;BME280;11581;51.250;6.778;2023-03-05T06:54:31;101435.72;;;7.62;57.72
22830;BME280;11581;51.250;6.778;2023-03-05T06:56:59;101436.38;;;7.66;57.54
22830;BME280;11581;51.250;6.778;2023-03-05T06:59:26;101436.16;;;7.69;57.74
22830;BME280;11581;51.250;6.778;2023-03-05T07:01:53;101433.28;;;7.72;57.58
22830;BME280;11581;51.250;6.778;2023-03-05T07:04:20;101436.41;;;7.77;57.35
22830;BME280;11581;51.250;6.778;2023-03-05T07:06:48;101428.34;;;7.78;57.47
22830;BME280;11581;51.250;6.778;2023-03-05T07:09:15;101427.38;;;7.79;57.21
22830;BME280;11581;51.250;6.778;2023-03-05T07:11:42;101381.28;;;7.57;57.27
22830;BME280;11581;51.250;6.778;2023-03-05T07:14:10;101420.78;;;7.85;57.47
22830;BME280;11581;51.250;6.778;2023-03-05T07:16:37;101422.34;;;7.87;57.31
22830;BME280;11581;51.250;6.778;2023-03-05T07:19:06;101409.63;;;7.80;57.55
22830;BME280;11581;51.250;6.778;2023-03-05T07:21:35;101379.31;;;7.71;57.08
22830;BME280;11581;51.250;6.778;2023-03-05T07:24:03;101416.69;;;7.92;57.29
22830;BME280;11581;51.250;6.778;2023-03-05T07:26:30;101416.69;;;7.92;57.00
22830;BME280;11581;51.250;6.778;2023-03-05T07:28:59;101422.72;;;7.94;57.13
22830;BME280;11581;51.250;6.778;2023-03-05T07:31:27;101419.25;;;7.93;57.30
22830;BME280;11581;51.250;6.778;2023-03-05T07:33:57;101423.59;;;7.94;57.38
22830;BME280;11581;51.250;6.778;2023-03-05T07:36:25;101414.53;;;7.97;57.30
22830;BME280;11581;51.250;6.778;2023-03-05T07:38:52;101411.88;;;7.97;57.31
22830;BME280;11581;51.250;6.778;2023-03-05T07:41:19;101406.56;;;7.97;57.61
22830;BME280;11581;51.250;6.778;2023-03-05T07:43:49;101403.78;;;7.98;57.49
22830;BME280;11581;51.250;6.778;2023-03-05T07:46:18;101407.19;;;8.00;57.55
22830;BME280;11581;51.250;6.778;2023-03-05T07:48:46;101405.16;;;8.04;58.00
22830;BME280;11581;51.250;6.778;2023-03-05T07:51:14;101396.44;;;8.02;57.38
22830;BME280;11581;51.250;6.778;2023-03-05T07:53:46;101401.06;;;8.11;57.58
22830;BME280;11581;51.250;6.778;2023-03-05T07:56:16;101308.97;;;7.53;57.47
22830;BME280;11581;51.250;6.778;2023-03-05T07:58:46;101390.69;;;8.19;57.67
22830;BME280;11581;51.250;6.778;2023-03-05T08:01:15;101369.41;;;8.08;57.78
22830;BME280;11581;51.250;6.778;2023-03-05T08:03:42;101368.09;;;8.13;57.49
22830;BME280;11581;51.250;6.778;2023-03-05T08:06:11;101389.78;;;8.31;57.53
22830;BME280;11581;51.250;6.778;2023-03-05T08:08:38;101388.81;;;8.32;57.30
22830;BME280;11581;51.250;6.778;2023-03-05T08:11:06;101397.31;;;8.37;57.08
22830;BME280;11581;51.250;6.778;2023-03-05T08:13:34;101400.66;;;8.39;56.86
22830;BME280;11581;51.250;6.778;2023-03-05T08:16:03;101382.81;;;8.41;56.69
22830;BME280;11581;51.250;6.778;2023-03-05T08:18:30;101379.16;;;8.42;56.82
22830;BME280;11581;51.250;6.778;2023-03-05T08:20:57;101382.56;;;8.44;56.73
22830;BME280;11581;51.250;6.778;2023-03-05T08:23:27;101375.34;;;8.46;56.88
22830;BME280;11581;51.250;6.778;2023-03-05T08:25:54;101356.47;;;8.38;56.94
22830;BME280;11581;51.250;6.778;2023-03-05T08:28:21;101372.06;;;8.53;56.93
22830;BME280;11581;51.250;6.778;2023-03-05T08:30:48;101369.91;;;8.58;56.83
22830;BME280;11581;51.250;6.778;2023-03-05T08:33:15;101343.44;;;8.46;56.92
22830;BME280;11581;51.250;6.778;2023-03-05T08:35:43;101341.25;;;8.51;56.61
22830;BME280;11581;51.250;6.778;2023-03-05T08:38:10;101364.44;;;8.71;56.90
22830;BME280;11581;51.250;6.778;2023-03-05T08:40:38;101362.28;;;8.76;57.11
22830;BME280;11581;51.250;6.778;2023-03-05T08:43:04;101339.69;;;8.70;57.10
22830;BME280;11581;51.250;6.778;2023-03-05T08:45:31;101289.28;;;8.47;57.30
22830;BME280;11581;51.250;6.778;2023-03-05T08:47:58;101364.19;;;8.96;57.63
22830;BME280;11581;51.250;6.778;2023-03-05T08:50:25;101360.06;;;9.03;57.30
22830;BME280;11581;51.250;6.778;2023-03-05T08:52:52;101327.81;;;8.96;57.12
22830;BME280;11581;51.250;6.778;2023-03-05T08:55:21;101328.41;;;9.00;57.26
22830;BME280;11581;51.250;6.778;2023-03-05T08:57:49;101352.56;;;9.19;56.63
22830;BME280;11581;51.250;6.778;2023-03-05T09:00:17;101329.84;;;9.04;56.32
22830;BME280;11581;51.250;6.778;2023-03-05T09:02:44;101349.41;;;9.25;56.27
22830;BME280;11581;51.250;6.778;2023-03-05T09:05:11;101273.28;;;8.80;56.21
22830;BME280;11581;51.250;6.778;2023-03-05T09:07:38;101083.97;;;7.68;56.05
22830;BME280;11581;51.250;6.778;2023-03-05T09:10:05;101348.91;;;9.31;55.83
22830;BME280;11581;51.250;6.778;2023-03-05T09:12:34;101344.19;;;9.35;55.90
22830;BME280;11581;51.250;6.778;2023-03-05T09:15:04;101342.22;;;9.37;55.66
22830;BME280;11581;51.250;6.778;2023-03-05T09:17:32;101341.97;;;9.40;55.67
22830;BME280;11581;51.250;6.778;2023-03-05T09:19:59;101335.53;;;9.42;55.93
22830;BME280;11581;51.250;6.778;2023-03-05T09:22:27;101333.28;;;9.38;55.97
22830;BME280;11581;51.250;6.778;2023-03-05T09:24:54;101325.03;;;9.41;55.64
22830;BME280;11581;51.250;6.778;2023-03-05T09:27:21;101326.09;;;9.49;55.54
22830;BME280;11581;51.250;6.778;2023-03-05T09:29:48;101328.78;;;9.49;55.59
22830;BME280;11581;51.250;6.778;2023-03-05T09:32:19;101302.16;;;9.38;56.19
22830;BME280;11581;51.250;6.778;2023-03-05T09:34:46;101318.25;;;9.48;56.35
22830;BME280;11581;51.250;6.778;2023-03-05T09:37:13;101320.78;;;9.49;56.12
22830;BME280;11581;51.250;6.778;2023-03-05T09:39:40;101308.16;;;9.51;56.03
22830;BME280;11581;51.250;6.778;2023-03-05T09:42:27;101316.63;;;9.56;55.76
22830;BME280;11581;51.250;6.778;2023-03-05T09:45:04;101266.13;;;9.34;55.71
22830;BME280;11581;51.250;6.778;2023-03-05T09:47:50;101310.81;;;9.62;55.62
22830;BME280;11581;51.250;6.778;2023-03-05T09:50:33;101310.25;;;9.68;55.66
22830;BME280;11581;51.250;6.778;2023-03-05T09:53:06;101306.38;;;9.72;55.57
22830;BME280;11581;51.250;6.778;2023-03-05T09:55:36;101226.09;;;9.25;55.30
22830;BME280;11581;51.250;6.778;2023-03-05T09:58:10;101207.47;;;9.25;55.13
22830;BME280;11581;51.250;6.778;2023-03-05T10:00:40;101151.38;;;8.96;54.94
22830;BME280;11581;51.250;6.778;2023-03-05T10:03:14;101300.41;;;10.00;54.85
22830;BME280;11581;51.250;6.778;2023-03-05T10:05:50;101311.16;;;10.10;54.48
22830;BME280;11581;51.250;6.778;2023-03-05T10:08:22;101305.19;;;10.17;54.38
22830;BME280;11581;51.250;6.778;2023-03-05T10:10:53;101285.63;;;10.07;54.43
22830;BME280;11581;51.250;6.778;2023-03-05T10:13:24;101237.25;;;9.91;54.22
22830;BME280;11581;51.250;6.778;2023-03-05T10:16:00;101261.28;;;10.21;53.96
22830;BME280;11581;51.250;6.778;2023-03-05T10:18:36;101298.88;;;10.48;54.22
22830;BME280;11581;51.250;6.778;2023-03-05T10:21:11;101290.06;;;10.57;53.57
22830;BME280;11581;51.250;6.778;2023-03-05T10:23:58;101292.06;;;10.65;53.18
22830;BME280;11581;51.250;6.778;2023-03-05T10:26:54;101288.47;;;10.75;53.44
22830;BME280;11581;51.250;6.778;2023-03-05T10:29:44;101276.69;;;10.87;53.59
22830;BME280;11581;51.250;6.778;2023-03-05T10:32:25;101217.66;;;10.71;53.54
22830;BME280;11581;51.250;6.778;2023-03-05T10:38:04;101267.50;;;11.58;52.33
22830;BME280;11581;51.250;6.778;2023-03-05T10:40:39;101266.38;;;11.80;52.73
22830;BME280;11581;51.250;6.778;2023-03-05T10:43:17;101264.94;;;11.95;51.83
22830;BME280;11581;51.250;6.778;2023-03-05T10:45:47;101269.13;;;12.07;51.81
22830;BME280;11581;51.250;6.778;2023-03-05T10:48:27;101261.94;;;12.17;50.17
22830;BME280;11581;51.250;6.778;2023-03-05T10:50:59;101051.69;;;11.06;50.32
22830;BME280;11581;51.250;6.778;2023-03-05T10:53:34;101253.16;;;12.34;49.84
22830;BME280;11581;51.250;6.778;2023-03-05T10:56:03;101170.97;;;11.90;50.20
22830;BME280;11581;51.250;6.778;2023-03-05T10:58:31;101243.63;;;12.49;50.03
22830;BME280;11581;51.250;6.778;2023-03-05T11:01:03;101110.00;;;11.76;49.06
22830;BME280;11581;51.250;6.778;2023-03-05T11:03:52;101243.25;;;12.71;48.65
22830;BME280;11581;51.250;6.778;2023-03-05T11:06:31;101229.97;;;12.79;48.07
22830;BME280;11581;51.250;6.778;2023-03-05T11:09:16;101244.81;;;12.91;47.86
22830;BME280;11581;51.250;6.778;2023-03-05T11:11:43;101212.47;;;12.84;48.68
22830;BME280;11581;51.250;6.778;2023-03-05T11:14:23;101191.94;;;12.75;46.94
22830;BME280;11581;51.250;6.778;2023-03-05T11:16:56;101227.28;;;13.06;47.55
22830;BME280;11581;51.250;6.778;2023-03-05T11:19:24;101219.09;;;13.07;46.66
22830;BME280;11581;51.250;6.778;2023-03-05T11:22:07;101219.09;;;13.07;46.02
22830;BME280;11581;51.250;6.778;2023-03-05T11:24:42;101189.28;;;12.93;46.82
22830;BME280;11581;51.250;6.778;2023-03-05T11:27:22;101208.94;;;13.11;45.73
22830;BME280;11581;51.250;6.778;2023-03-05T11:29:51;101154.72;;;12.82;46.49
22830;BME280;11581;51.250;6.778;2023-03-05T11:32:21;101203.88;;;13.08;45.98
22830;BME280;11581;51.250;6.778;2023-03-05T11:34:48;101187.63;;;12.92;46.23
22830;BME280;11581;51.250;6.778;2023-03-05T11:37:22;101203.22;;;12.96;45.89
22830;BME280;11581;51.250;6.778;2023-03-05T11:40:04;101207.66;;;12.88;45.30
22830;BME280;11581;51.250;6.778;2023-03-05T11:42:33;101202.19;;;12.80;46.07
22830;BME280;11581;51.250;6.778;2023-03-05T11:45:00;101204.94;;;12.70;46.12
22830;BME280;11581;51.250;6.778;2023-03-05T11:47:34;101199.94;;;12.58;45.83
22830;BME280;11581;51.250;6.778;2023-03-05T11:50:11;101112.44;;;11.96;45.98
22830;BME280;11581;51.250;6.778;2023-03-05T11:52:47;101194.38;;;12.42;46.72
22830;BME280;11581;51.250;6.778;2023-03-05T11:55:17;101190.47;;;12.36;46.77
22830;BME280;11581;51.250;6.778;2023-03-05T11:57:49;101151.47;;;12.16;46.61
22830;BME280;11581;51.250;6.778;2023-03-05T12:00:26;101180.94;;;12.34;46.54
22830;BME280;11581;51.250;6.778;2023-03-05T12:02:56;101136.88;;;12.01;47.01
22830;BME280;11581;51.250;6.778;2023-03-05T12:05:25;101178.94;;;12.36;47.48
22830;BME280;11581;51.250;6.778;2023-03-05T12:07:56;101181.31;;;12.39;47.38
22830;BME280;11581;51.250;6.778;2023-03-05T12:10:26;101178.34;;;12.42;47.23
22830;BME280;11581;51.250;6.778;2023-03-05T12:12:56;101164.53;;;12.46;46.83
22830;BME280;11581;51.250;6.778;2023-03-05T12:15:34;101162.41;;;12.50;46.54
22830;BME280;11581;51.250;6.778;2023-03-05T12:18:11;101155.75;;;12.54;46.78
22830;BME280;11581;51.250;6.778;2023-03-05T12:20:45;101130.75;;;12.45;46.67
22830;BME280;11581;51.250;6.778;2023-03-05T12:23:17;101148.13;;;12.59;47.08
22830;BME280;11581;51.250;6.778;2023-03-05T12:25:48;101074.91;;;12.15;47.01
22830;BME280;11581;51.250;6.778;2023-03-05T12:29:00;101135.13;;;12.64;46.89
22830;BME280;11581;51.250;6.778;2023-03-05T12:31:35;101134.81;;;12.67;46.89
22830;BME280;11581;51.250;6.778;2023-03-05T12:40:20;101119.22;;;12.62;46.31
22830;BME280;11581;51.250;6.778;2023-03-05T12:42:53;101113.94;;;12.53;46.40
22830;BME280;11581;51.250;6.778;2023-03-05T12:45:32;101030.94;;;12.00;46.35
22830;BME280;11581;51.250;6.778;2023-03-05T12:48:40;101102.22;;;12.36;46.56
22830;BME280;11581;51.250;6.778;2023-03-05T12:51:27;101103.25;;;12.26;46.66
22830;BME280;11581;51.250;6.778;2023-03-05T12:53:55;101075.81;;;12.06;46.86
22830;BME280;11581;51.250;6.778;2023-03-05T12:56:25;101092.38;;;12.10;46.70
22830;BME280;11581;51.250;6.778;2023-03-05T12:58:57;101088.75;;;12.01;46.82
22830;BME280;11581;51.250;6.778;2023-03-05T13:01:33;101098.38;;;11.94;46.93
22830;BME280;11581;51.250;6.778;2023-03-05T13:04:04;101080.25;;;11.88;47.07
22830;BME280;11581;51.250;6.778;2023-03-05T13:06:36;101070.00;;;11.84;47.11
22830;BME280;11581;51.250;6.778;2023-03-05T13:09:07;101068.63;;;11.80;46.66
22830;BME280;11581;51.250;6.778;2023-03-05T13:11:36;101057.25;;;11.59;46.73
22830;BME280;11581;51.250;6.778;2023-03-05T13:14:25;101063.72;;;11.75;46.67
22830;BME280;11581;51.250;6.778;2023-03-05T13:16:53;101046.69;;;11.76;47.07
22830;BME280;11581;51.250;6.778;2023-03-05T13:19:21;101053.59;;;11.79;47.06
22830;BME280;11581;51.250;6.778;2023-03-05T13:21:57;101051.59;;;11.81;46.59
22830;BME280;11581;51.250;6.778;2023-03-05T13:24:24;101044.28;;;11.83;46.95